Time;durP1;ratioP1;P1;durP2;ratioP2;P2;SDS_P1;SDS_P2;PMS_P1;PMS_P2;Temp;Humidity;BMP_temperature;BMP_pressure;BME280_temperature;BME280_humidity;BME280_pressure;Samples;Min_cycle;Max_cycle;Signal;HPM_P1;HPM_P2
2022/03/28 00:01:38;;;;;;;;;;;18.40;35.30;;;;;;5072268;28;43330;-73
2022/03/28 00:04:04;;;;;;;;;;;18.40;36.00;;;;;;5064089;28;43111;-72
2022/03/28 00:06:30;;;;;;;;;;;18.50;35.80;;;;;;5061512;28;43474;-73
2022/03/28 00:08:56;;;;;;;;;;;18.40;35.90;;;;;;5063687;28;42870;-73
2022/03/28 00:11:21;;;;;;;;;;;18.50;35.10;;;;;;5063880;28;43032;-73
2022/03/28 00:13:47;;;;;;;;;;;18.50;35.90;;;;;;5064727;28;42895;-74
2022/03/28 00:16:13;;;;;;;;;;;18.40;35.80;;;;;;5074977;28;42888;-74
2022/03/28 00:18:38;;;;;;;;;;;18.40;35.10;;;;;;5084332;28;43747;-74
2022/03/28 00:21:04;;;;;;;;;;;18.40;35.40;;;;;;5084487;28;43731;-73
2022/03/28 00:23:31;;;;;;;;;;;18.50;35.40;;;;;;5083451;28;43082;-73
2022/03/28 00:25:56;;;;;;;;;;;18.40;35.40;;;;;;5084010;28;43793;-73
2022/03/28 00:28:23;;;;;;;;;;;18.50;36.50;;;;;;5084665;28;42937;-74
2022/03/28 00:30:50;;;;;;;;;;;18.50;35.70;;;;;;5084699;28;42949;-74
2022/03/28 00:33:16;;;;;;;;;;;18.50;35.30;;;;;;5085059;28;42897;-74
2022/03/28 00:35:42;;;;;;;;;;;18.50;35.40;;;;;;5084943;28;42893;-74
2022/03/28 00:38:08;;;;;;;;;;;18.50;35.80;;;;;;5082618;28;43037;-73
2022/03/28 00:40:33;;;;;;;;;;;18.50;36.20;;;;;;5084022;28;43327;-73
2022/03/28 00:42:59;;;;;;;;;;;18.50;35.90;;;;;;5083894;28;43044;-72
2022/03/28 00:45:25;;;;;;;;;;;18.40;35.40;;;;;;5084851;28;43483;-74
2022/03/28 00:47:51;;;;;;;;;;;18.50;35.80;;;;;;5087076;27;42917;-74
2022/03/28 00:50:17;;;;;;;;;;;18.50;35.00;;;;;;5087517;27;43853;-76
2022/03/28 00:52:42;;;;;;;;;;;18.50;35.30;;;;;;5088508;28;43033;-73
2022/03/28 00:55:08;;;;;;;;;;;18.60;35.40;;;;;;5088084;28;43918;-73
2022/03/28 00:57:34;;;;;;;;;;;18.50;35.80;;;;;;5088242;28;42916;-73
2022/03/28 01:00:00;;;;;;;;;;;18.50;36.00;;;;;;5087962;28;43012;-73
2022/03/28 01:02:26;;;;;;;;;;;18.60;35.70;;;;;;5087994;28;42920;-74
2022/03/28 01:04:51;;;;;;;;;;;18.60;35.50;;;;;;5087581;28;43623;-75
2022/03/28 01:07:19;;;;;;;;;;;18.50;35.90;;;;;;5087976;28;43340;-72
2022/03/28 01:09:45;;;;;;;;;;;18.60;35.70;;;;;;5087144;28;42945;-73
2022/03/28 01:12:11;;;;;;;;;;;18.60;36.10;;;;;;5087620;28;42989;-73
2022/03/28 01:14:37;;;;;;;;;;;18.50;36.40;;;;;;5087454;28;43450;-73
2022/03/28 01:19:50;;;;;;;;;;;18.50;36.10;;;;;;5087292;28;43033;-78
2022/03/28 01:22:16;;;;;;;;;;;18.50;36.10;;;;;;5087634;28;42835;-73
2022/03/28 01:24:41;;;;;;;;;;;18.50;36.60;;;;;;5087586;28;42835;-73
2022/03/28 01:27:07;;;;;;;;;;;18.50;36.10;;;;;;5087712;28;43004;-73
2022/03/28 01:29:33;;;;;;;;;;;18.40;36.60;;;;;;5087497;28;42896;-74
2022/03/28 01:31:58;;;;;;;;;;;18.50;36.10;;;;;;5086803;28;42987;-75
2022/03/28 01:34:24;;;;;;;;;;;18.50;36.10;;;;;;5086515;28;42985;-76
2022/03/28 01:36:49;;;;;;;;;;;18.50;36.30;;;;;;5087310;28;42932;-76
2022/03/28 01:39:15;;;;;;;;;;;18.50;36.20;;;;;;5087451;28;44043;-77
2022/03/28 01:41:41;;;;;;;;;;;18.50;36.30;;;;;;5086361;27;43034;-74
2022/03/28 01:44:07;;;;;;;;;;;18.50;36.30;;;;;;5086925;28;43130;-78
2022/03/28 01:46:40;;;;;;;;;;;18.60;36.50;;;;;;5086974;28;43190;-74
2022/03/28 01:49:05;;;;;;;;;;;18.50;36.40;;;;;;5087359;28;43371;-77
2022/03/28 01:51:31;;;;;;;;;;;18.50;37.00;;;;;;5087867;28;42928;-73
2022/03/28 01:54:00;;;;;;;;;;;18.50;37.50;;;;;;5084378;28;45230;-73
2022/03/28 01:56:26;;;;;;;;;;;18.50;36.90;;;;;;5087301;28;42921;-75
2022/03/28 01:58:51;;;;;;;;;;;18.60;36.50;;;;;;5085979;27;42794;-75
2022/03/28 02:01:17;;;;;;;;;;;18.60;36.50;;;;;;5087297;28;42969;-75
2022/03/28 02:03:42;;;;;;;;;;;18.50;36.50;;;;;;5074837;28;44152;-77
2022/03/28 02:06:09;;;;;;;;;;;18.60;36.70;;;;;;5067895;28;43060;-74
2022/03/28 02:08:35;;;;;;;;;;;18.60;37.20;;;;;;5064093;28;45117;-74
2022/03/28 02:11:01;;;;;;;;;;;18.60;36.80;;;;;;5065640;28;42903;-74
2022/03/28 02:13:26;;;;;;;;;;;18.50;36.70;;;;;;5065730;28;42943;-78
2022/03/28 02:15:52;;;;;;;;;;;18.50;37.20;;;;;;5065775;28;42854;-74
2022/03/28 02:18:17;;;;;;;;;;;18.60;36.80;;;;;;5065800;28;42938;-75
2022/03/28 02:20:43;;;;;;;;;;;18.50;37.40;;;;;;5065476;28;42921;-77
2022/03/28 02:23:08;;;;;;;;;;;18.60;36.90;;;;;;5065019;28;43683;-73
2022/03/28 02:25:37;;;;;;;;;;;16.10;36.30;;;;;;5064885;28;42911;-74
2022/03/28 02:28:05;;;;;;;;;;;18.50;37.50;;;;;;5065082;28;43847;-75
2022/03/28 02:30:31;;;;;;;;;;;18.50;37.10;;;;;;5065198;28;42982;-73
2022/03/28 02:32:57;;;;;;;;;;;20.00;37.70;;;;;;5065188;28;43765;-74
2022/03/28 02:35:23;;;;;;;;;;;18.50;37.00;;;;;;5064957;28;43074;-74
2022/03/28 02:37:48;;;;;;;;;;;18.60;37.10;;;;;;5065467;28;43103;-77
2022/03/28 02:40:14;;;;;;;;;;;18.50;37.00;;;;;;5064828;28;42982;-77
2022/03/28 02:42:40;;;;;;;;;;;18.60;37.70;;;;;;5064677;28;43096;-74
2022/03/28 02:45:05;;;;;;;;;;;18.50;37.60;;;;;;5065635;28;42977;-75
2022/03/28 02:47:31;;;;;;;;;;;18.60;37.60;;;;;;5065925;28;43402;-73
2022/03/28 02:49:57;;;;;;;;;;;18.50;37.70;;;;;;5069359;28;43103;-73
2022/03/28 02:52:22;;;;;;;;;;;18.60;37.20;;;;;;5069529;28;43401;-76
2022/03/28 02:54:48;;;;;;;;;;;;;;;;;;5063753;28;43078;-78
2022/03/28 02:57:14;;;;;;;;;;;18.50;37.10;;;;;;5065359;28;42951;-77
2022/03/28 02:59:40;;;;;;;;;;;18.50;37.90;;;;;;5064054;28;42978;-78
2022/03/28 03:02:06;;;;;;;;;;;18.40;37.30;;;;;;5065122;28;43930;-76
2022/03/28 03:04:32;;;;;;;;;;;18.50;37.30;;;;;;5065393;28;42949;-78
2022/03/28 03:06:58;;;;;;;;;;;18.50;37.90;;;;;;5064679;28;42922;-76
2022/03/28 03:09:24;;;;;;;;;;;18.50;37.40;;;;;;5063626;28;42973;-77
2022/03/28 03:11:50;;;;;;;;;;;18.60;37.50;;;;;;5064603;28;43825;-77
2022/03/28 03:14:16;;;;;;;;;;;18.50;37.40;;;;;;5063751;28;42999;-77
2022/03/28 03:16:41;;;;;;;;;;;18.50;38.00;;;;;;5069345;28;43644;-77
2022/03/28 03:19:07;;;;;;;;;;;18.60;38.00;;;;;;5085513;27;42952;-78
2022/03/28 03:21:33;;;;;;;;;;;18.50;37.30;;;;;;5084289;28;42914;-76
2022/03/28 03:23:58;;;;;;;;;;;18.60;38.00;;;;;;5085381;28;42985;-76
2022/03/28 03:26:24;;;;;;;;;;;18.50;38.00;;;;;;5084628;28;43625;-75
2022/03/28 03:28:49;;;;;;;;;;;18.60;37.50;;;;;;5085505;28;42982;-75
2022/03/28 03:31:15;;;;;;;;;;;18.50;37.90;;;;;;5085269;28;42951;-74
2022/03/28 03:33:40;;;;;;;;;;;18.50;37.90;;;;;;5084884;28;42972;-76
2022/03/28 03:36:06;;;;;;;;;;;18.50;37.40;;;;;;5083741;28;42932;-75
2022/03/28 03:38:32;;;;;;;;;;;18.60;38.00;;;;;;5084277;28;43032;-77
2022/03/28 03:40:58;;;;;;;;;;;18.60;38.00;;;;;;5084052;28;43335;-76
2022/03/28 03:43:25;;;;;;;;;;;18.50;37.40;;;;;;5083985;28;42821;-74
2022/03/28 03:45:51;;;;;;;;;;;18.50;38.00;;;;;;5082995;28;44374;-76
2022/03/28 03:48:16;;;;;;;;;;;18.60;38.00;;;;;;5084405;28;42920;-77
2022/03/28 03:50:42;;;;;;;;;;;18.50;37.50;;;;;;5083162;28;43871;-76
2022/03/28 03:53:08;;;;;;;;;;;18.50;37.50;;;;;;5084251;28;42872;-76
2022/03/28 03:55:41;;;;;;;;;;;18.50;38.10;;;;;;5084100;28;42952;-74
2022/03/28 03:58:07;;;;;;;;;;;18.60;37.60;;;;;;5084069;28;42927;-78
2022/03/28 04:00:33;;;;;;;;;;;18.40;37.50;;;;;;5084542;28;43652;-78
2022/03/28 04:02:58;;;;;;;;;;;18.60;37.60;;;;;;5084570;28;42974;-76
2022/03/28 04:05:24;;;;;;;;;;;18.50;37.60;;;;;;5083427;28;42917;-79
2022/03/28 04:07:50;;;;;;;;;;;18.60;37.60;;;;;;5083820;28;42906;-77
2022/03/28 04:10:15;;;;;;;;;;;18.50;38.40;;;;;;5083721;28;43012;-77
2022/03/28 04:12:41;;;;;;;;;;;18.50;37.70;;;;;;5084881;28;43056;-76
2022/03/28 04:15:07;;;;;;;;;;;18.60;37.70;;;;;;5083954;28;43013;-77
2022/03/28 04:17:39;;;;;;;;;;;18.50;37.70;;;;;;5085031;28;42870;-77
2022/03/28 04:20:08;;;;;;;;;;;18.50;37.70;;;;;;5083487;28;43995;-78
2022/03/28 04:22:33;;;;;;;;;;;18.70;37.80;;;;;;5090040;27;42987;-75
2022/03/28 04:24:59;;;;;;;;;;;18.50;37.70;;;;;;5090534;28;43108;-74
2022/03/28 04:27:24;;;;;;;;;;;18.50;37.70;;;;;;5090236;28;42921;-75
2022/03/28 04:29:50;;;;;;;;;;;18.60;37.80;;;;;;5090575;28;43196;-74
2022/03/28 04:32:16;;;;;;;;;;;18.50;37.70;;;;;;5090737;27;43020;-74
2022/03/28 04:34:41;;;;;;;;;;;18.80;38.40;;;;;;5090318;28;43518;-74
2022/03/28 04:37:07;;;;;;;;;;;18.60;37.90;;;;;;5091183;28;42993;-75
2022/03/28 04:39:33;;;;;;;;;;;18.50;38.20;;;;;;5091190;28;43538;-73
2022/03/28 04:41:58;;;;;;;;;;;18.60;38.40;;;;;;5090244;28;43071;-77
2022/03/28 04:44:24;;;;;;;;;;;18.50;37.70;;;;;;5090593;28;44459;-77
2022/03/28 04:46:49;;;;;;;;;;;18.60;38.40;;;;;;5089656;28;42917;-74
2022/03/28 04:49:15;;;;;;;;;;;18.50;38.30;;;;;;5090229;28;42954;-78
2022/03/28 04:51:41;;;;;;;;;;;18.40;37.70;;;;;;5089174;28;43153;-74
2022/03/28 04:54:06;;;;;;;;;;;18.60;38.30;;;;;;5089259;28;43942;-73
2022/03/28 04:56:34;;;;;;;;;;;18.50;37.90;;;;;;5089467;27;43040;-74
2022/03/28 04:58:59;;;;;;;;;;;18.50;38.70;;;;;;5089786;28;43548;-75
2022/03/28 05:01:25;;;;;;;;;;;18.00;34.00;;;;;;5090429;28;42873;-74
2022/03/28 05:03:51;;;;;;;;;;;17.90;34.20;;;;;;5090028;28;43894;-75
2022/03/28 05:06:16;;;;;;;;;;;17.90;33.50;;;;;;5089285;27;43216;-74
2022/03/28 05:08:42;;;;;;;;;;;17.10;31.80;;;;;;5090350;28;42892;-75
2022/03/28 05:11:07;;;;;;;;;;;16.90;32.30;;;;;;5090458;28;43297;-75
2022/03/28 05:13:33;;;;;;;;;;;17.00;32.50;;;;;;5087943;28;45868;-74
2022/03/28 05:15:59;;;;;;;;;;;17.00;31.90;;;;;;5090321;28;43081;-75
2022/03/28 05:18:24;;;;;;;;;;;16.70;31.60;;;;;;5090525;27;42924;-78
2022/03/28 05:20:50;;;;;;;;;;;16.80;31.70;;;;;;5089510;28;42953;-76
2022/03/28 05:23:15;;;;;;;;;;;16.60;31.60;;;;;;5089893;28;43473;-75
2022/03/28 05:25:41;;;;;;;;;;;16.60;31.70;;;;;;5088676;28;42992;-74
2022/03/28 05:28:06;;;;;;;;;;;16.60;31.80;;;;;;5090767;28;42964;-75
2022/03/28 05:30:32;;;;;;;;;;;16.40;31.70;;;;;;5090705;28;43039;-76
2022/03/28 05:32:57;;;;;;;;;;;16.50;31.80;;;;;;5087679;28;42944;-76
2022/03/28 05:35:23;;;;;;;;;;;16.60;32.50;;;;;;5086266;28;42895;-74
2022/03/28 05:37:49;;;;;;;;;;;16.40;31.90;;;;;;5086368;28;43374;-74
2022/03/28 05:40:15;;;;;;;;;;;16.40;32.50;;;;;;5086523;28;42797;-77
2022/03/28 05:42:40;;;;;;;;;;;16.30;32.20;;;;;;5086064;28;43562;-74
2022/03/28 05:45:08;;;;;;;;;;;16.40;32.20;;;;;;5087205;28;42936;-78
2022/03/28 05:47:34;;;;;;;;;;;16.40;32.20;;;;;;5085998;28;43020;-74
2022/03/28 05:49:59;;;;;;;;;;;16.30;32.30;;;;;;5086489;28;43251;-73
2022/03/28 05:52:25;;;;;;;;;;;16.40;32.30;;;;;;5085771;28;42913;-76
2022/03/28 05:54:51;;;;;;;;;;;16.30;33.60;;;;;;5085051;28;42961;-73
2022/03/28 05:57:17;;;;;;;;;;;16.30;32.60;;;;;;5084295;27;43168;-75
2022/03/28 05:59:42;;;;;;;;;;;16.30;32.50;;;;;;5082939;28;44480;-73
2022/03/28 06:02:08;;;;;;;;;;;16.40;32.60;;;;;;5075723;28;42950;-73
2022/03/28 06:04:34;;;;;;;;;;;16.30;32.70;;;;;;5076783;28;42989;-77
2022/03/28 06:06:59;;;;;;;;;;;16.40;32.70;;;;;;5080325;28;44303;-74
2022/03/28 06:09:25;;;;;;;;;;;16.40;33.30;;;;;;5087286;28;42893;-75
2022/03/28 06:11:50;;;;;;;;;;;16.40;33.40;;;;;;5087026;28;42830;-74
2022/03/28 06:14:16;;;;;;;;;;;16.30;32.70;;;;;;5087048;28;42973;-74
2022/03/28 06:16:42;;;;;;;;;;;16.30;32.70;;;;;;5102078;27;44240;-74
2022/03/28 06:19:07;;;;;;;;;;;16.40;32.80;;;;;;5086909;28;43015;-74
2022/03/28 06:21:33;;;;;;;;;;;16.40;32.60;;;;;;5085402;28;43124;-76
2022/03/28 06:23:59;;;;;;;;;;;16.50;32.70;;;;;;5087052;28;42959;-74
2022/03/28 06:26:24;;;;;;;;;;;16.60;32.80;;;;;;5086659;27;43085;-74
2022/03/28 06:28:50;;;;;;;;;;;16.50;33.30;;;;;;5082484;27;43161;-74
2022/03/28 06:31:16;;;;;;;;;;;16.80;32.70;;;;;;5074518;28;43165;-76
2022/03/28 06:33:41;;;;;;;;;;;16.60;32.60;;;;;;5086224;27;43016;-74
2022/03/28 06:36:07;;;;;;;;;;;16.70;32.60;;;;;;5079383;28;44226;-73
2022/03/28 06:38:33;;;;;;;;;;;16.80;32.70;;;;;;5086910;27;42843;-73
2022/03/28 06:40:59;;;;;;;;;;;16.80;32.70;;;;;;5086649;27;42959;-72
2022/03/28 06:43:24;;;;;;;;;;;16.80;32.80;;;;;;5084570;27;42988;-72
2022/03/28 06:45:51;;;;;;;;;;;17.00;32.90;;;;;;5085604;27;42844;-74
2022/03/28 06:48:17;;;;;;;;;;;17.10;33.10;;;;;;5084663;28;42847;-73
2022/03/28 06:50:43;;;;;;;;;;;16.90;33.00;;;;;;5086649;28;43210;-74
2022/03/28 06:53:08;;;;;;;;;;;17.00;33.80;;;;;;5086317;28;43041;-73
2022/03/28 06:55:34;;;;;;;;;;;16.90;33.30;;;;;;5081188;27;43926;-73
2022/03/28 06:57:59;;;;;;;;;;;17.00;33.40;;;;;;5085735;28;43002;-74
2022/03/28 07:00:25;;;;;;;;;;;17.00;33.40;;;;;;5071284;28;44176;-75
2022/03/28 07:02:50;;;;;;;;;;;17.10;34.10;;;;;;5082437;28;43221;-75
2022/03/28 07:05:16;;;;;;;;;;;17.10;33.60;;;;;;5069396;28;42934;-74
2022/03/28 07:07:43;;;;;;;;;;;17.20;33.20;;;;;;5078004;28;43303;-74
2022/03/28 07:10:12;;;;;;;;;;;17.10;33.10;;;;;;5072879;28;43761;-75
2022/03/28 07:12:38;;;;;;;;;;;17.30;32.90;;;;;;5074899;28;43131;-75
2022/03/28 07:15:05;;;;;;;;;;;17.40;33.10;;;;;;5077764;28;43640;-75
2022/03/28 07:17:30;;;;;;;;;;;17.30;33.00;;;;;;5075394;28;42927;-74
2022/03/28 07:19:56;;;;;;;;;;;17.40;33.10;;;;;;5078436;28;43825;-74
2022/03/28 07:22:21;;;;;;;;;;;17.60;33.10;;;;;;5083898;28;42869;-74
2022/03/28 07:24:47;;;;;;;;;;;17.50;33.90;;;;;;5072793;28;43294;-73
2022/03/28 07:27:12;;;;;;;;;;;17.70;33.30;;;;;;5074830;27;43000;-74
2022/03/28 07:29:38;;;;;;;;;;;17.60;33.20;;;;;;5074425;28;42890;-73
2022/03/28 07:32:04;;;;;;;;;;;17.70;33.50;;;;;;5079424;27;43012;-76
2022/03/28 07:34:30;;;;;;;;;;;17.80;33.30;;;;;;5071422;27;42901;-74
2022/03/28 07:36:56;;;;;;;;;;;17.70;33.90;;;;;;5065476;28;43066;-74
2022/03/28 07:39:22;;;;;;;;;;;17.60;33.60;;;;;;5065842;28;42987;-75
2022/03/28 07:41:48;;;;;;;;;;;17.80;33.00;;;;;;5070420;28;42966;-75
2022/03/28 07:44:13;;;;;;;;;;;17.80;33.50;;;;;;5085419;28;42903;-74
2022/03/28 07:46:39;;;;;;;;;;;17.80;33.20;;;;;;5085685;28;42863;-74
2022/03/28 07:49:07;;;;;;;;;;;17.70;32.10;;;;;;5084502;28;43216;-74
2022/03/28 07:51:32;;;;;;;;;;;17.90;31.80;;;;;;5082621;28;43056;-78
2022/03/28 07:53:58;;;;;;;;;;;17.90;31.80;;;;;;5083595;28;42922;-76
2022/03/28 07:56:23;;;;;;;;;;;18.00;32.10;;;;;;5083007;27;42891;-77
2022/03/28 07:58:49;;;;;;;;;;;18.10;32.50;;;;;;5083539;28;43592;-77
2022/03/28 08:01:14;;;;;;;;;;;18.00;32.70;;;;;;5084022;28;43322;-79
2022/03/28 08:03:47;;;;;;;;;;;18.10;31.80;;;;;;5080244;28;43267;-75
2022/03/28 08:06:13;;;;;;;;;;;18.00;31.50;;;;;;5072574;28;42968;-76
2022/03/28 08:08:38;;;;;;;;;;;18.10;31.70;;;;;;5084077;28;42824;-76
2022/03/28 08:11:05;;;;;;;;;;;18.00;32.30;;;;;;5084473;28;43267;-78
2022/03/28 08:13:31;;;;;;;;;;;18.10;31.00;;;;;;5061299;28;43364;-74
2022/03/28 08:15:56;;;;;;;;;;;18.20;30.70;;;;;;5064011;28;43025;-75
2022/03/28 08:18:22;;;;;;;;;;;18.00;31.00;;;;;;5083531;28;42951;-76
2022/03/28 08:20:47;;;;;;;;;;;18.10;31.50;;;;;;5084576;28;43064;-76
2022/03/28 08:23:15;;;;;;;;;;;18.00;32.10;;;;;;5084255;28;43026;-75
2022/03/28 08:25:40;;;;;;;;;;;18.00;32.10;;;;;;5083771;28;43091;-75
2022/03/28 08:28:06;;;;;;;;;;;18.10;32.00;;;;;;5080058;27;43077;-75
2022/03/28 08:30:31;;;;;;;;;;;18.10;32.00;;;;;;5082389;28;42951;-75
2022/03/28 08:32:57;;;;;;;;;;;18.10;32.00;;;;;;5081865;28;43414;-76
2022/03/28 08:35:24;;;;;;;;;;;18.20;32.10;;;;;;5083525;28;43124;-74
2022/03/28 08:37:50;;;;;;;;;;;18.10;32.10;;;;;;5075794;28;44371;-75
2022/03/28 08:40:16;;;;;;;;;;;18.10;33.10;;;;;;5083635;28;42930;-75
2022/03/28 08:42:41;;;;;;;;;;;18.10;32.30;;;;;;5078886;28;43645;-74
2022/03/28 08:45:08;;;;;;;;;;;18.20;32.00;;;;;;5073419;28;42901;-75
2022/03/28 08:47:37;;;;;;;;;;;18.10;32.00;;;;;;5074800;28;43944;-75
2022/03/28 08:50:02;;;;;;;;;;;18.10;31.90;;;;;;5073960;28;43219;-76
2022/03/28 08:52:28;;;;;;;;;;;18.30;32.60;;;;;;5049304;28;44600;-76
2022/03/28 08:54:53;;;;;;;;;;;18.20;32.40;;;;;;5064234;28;42938;-76
2022/03/28 08:57:19;;;;;;;;;;;18.20;32.40;;;;;;5066893;28;42980;-76
2022/03/28 08:59:45;;;;;;;;;;;18.30;32.70;;;;;;5079322;28;43116;-77
2022/03/28 09:02:29;;;;;;;;;;;18.30;32.50;;;;;;5072176;28;43024;-76
2022/03/28 09:04:55;;;;;;;;;;;18.30;32.40;;;;;;5066574;28;42925;-74
2022/03/28 09:07:24;;;;;;;;;;;18.20;32.60;;;;;;5074451;28;43028;-77
2022/03/28 09:09:55;;;;;;;;;;;18.30;32.30;;;;;;5075086;28;42968;-79
2022/03/28 09:12:21;;;;;;;;;;;18.30;33.00;;;;;;5080411;28;42957;-82
2022/03/28 09:14:54;;;;;;;;;;;18.30;33.60;;;;;;5073569;28;43237;-76
2022/03/28 09:17:20;;;;;;;;;;;18.20;33.30;;;;;;5082855;28;43434;-76
2022/03/28 09:19:53;;;;;;;;;;;19.10;33.60;;;;;;5071080;28;43080;-74
2022/03/28 09:22:26;;;;;;;;;;;18.30;32.60;;;;;;5065816;28;42864;-76
2022/03/28 09:24:59;;;;;;;;;;;18.40;32.60;;;;;;5069483;28;43252;-78
2022/03/28 09:27:31;;;;;;;;;;;18.30;32.80;;;;;;5078706;28;43757;-75
2022/03/28 09:30:07;;;;;;;;;;;18.40;33.10;;;;;;5077460;28;42972;-75
2022/03/28 09:32:37;;;;;;;;;;;18.40;33.20;;;;;;5072553;28;43570;-74
2022/03/28 09:35:13;;;;;;;;;;;18.40;33.10;;;;;;5085701;28;42968;-75
2022/03/28 09:37:47;;;;;;;;;;;18.50;33.30;;;;;;5073103;28;43078;-75
2022/03/28 09:40:25;;;;;;;;;;;18.40;31.30;;;;;;5073048;28;43000;-77
2022/03/28 09:42:51;;;;;;;;;;;18.40;31.80;;;;;;5086820;28;43879;-74
2022/03/28 09:45:22;;;;;;;;;;;18.40;32.50;;;;;;5086113;28;42931;-76
2022/03/28 09:47:59;;;;;;;;;;;18.40;32.50;;;;;;5072395;28;43524;-75
2022/03/28 09:50:31;;;;;;;;;;;18.40;32.80;;;;;;5066577;28;43050;-77
2022/03/28 09:52:56;;;;;;;;;;;18.50;32.90;;;;;;5066930;28;43624;-74
2022/03/28 09:55:22;;;;;;;;;;;18.60;33.50;;;;;;5067124;28;42983;-75
2022/03/28 09:57:48;;;;;;;;;;;18.50;32.50;;;;;;5068943;28;43872;-80
2022/03/28 10:00:15;;;;;;;;;;;18.50;32.50;;;;;;5082952;28;42947;-75
2022/03/28 10:02:41;;;;;;;;;;;18.50;32.50;;;;;;5085488;28;43831;-75
2022/03/28 10:05:07;;;;;;;;;;;18.50;32.60;;;;;;5075516;28;42887;-77
2022/03/28 10:07:33;;;;;;;;;;;18.50;32.20;;;;;;5080962;28;43040;-75
2022/03/28 10:09:59;;;;;;;;;;;18.50;32.40;;;;;;5079002;28;43024;-75
2022/03/28 10:12:25;;;;;;;;;;;18.50;33.10;;;;;;5073955;28;44133;-78
2022/03/28 10:14:54;;;;;;;;;;;18.40;32.30;;;;;;5083988;28;43011;-75
2022/03/28 10:17:19;;;;;;;;;;;18.50;32.30;;;;;;5076819;28;43108;-77
2022/03/28 10:19:45;;;;;;;;;;;18.50;32.20;;;;;;5067432;28;43115;-75
2022/03/28 10:22:14;;;;;;;;;;;18.60;33.00;;;;;;5065253;28;43841;-77
2022/03/28 10:24:40;;;;;;;;;;;18.40;32.30;;;;;;5082562;28;43907;-75
2022/03/28 10:27:06;;;;;;;;;;;18.50;32.50;;;;;;5066273;28;43061;-77
2022/03/28 10:29:39;;;;;;;;;;;18.50;32.40;;;;;;5085056;28;43448;-76
2022/03/28 10:32:12;;;;;;;;;;;18.60;32.60;;;;;;5087945;28;43335;-76
2022/03/28 10:34:41;;;;;;;;;;;18.60;33.00;;;;;;5087508;28;42764;-75
2022/03/28 10:37:22;;;;;;;;;;;18.60;32.80;;;;;;5084242;28;43709;-77
2022/03/28 10:39:47;;;;;;;;;;;18.50;32.90;;;;;;5084594;28;43103;-78
2022/03/28 10:42:17;;;;;;;;;;;18.60;32.90;;;;;;5072504;28;43910;-75
2022/03/28 10:44:59;;;;;;;;;;;18.60;33.20;;;;;;5084624;28;42957;-77
2022/03/28 10:47:45;;;;;;;;;;;18.50;33.10;;;;;;5075569;28;43560;-76
2022/03/28 10:50:12;;;;;;;;;;;18.60;33.20;;;;;;5075740;28;43105;-75
2022/03/28 10:52:38;;;;;;;;;;;18.60;33.50;;;;;;5075098;28;43325;-75
2022/03/28 10:55:11;;;;;;;;;;;18.60;34.00;;;;;;5072501;28;43048;-74
2022/03/28 10:57:37;;;;;;;;;;;18.70;34.10;;;;;;5072685;28;43599;-77
2022/03/28 11:00:05;;;;;;;;;;;18.60;33.70;;;;;;5073802;28;43358;-73
2022/03/28 11:02:31;;;;;;;;;;;18.70;35.10;;;;;;5065463;27;43036;-77
2022/03/28 11:05:05;;;;;;;;;;;18.70;34.00;;;;;;5077636;28;43260;-74
2022/03/28 11:07:30;;;;;;;;;;;18.50;34.60;;;;;;5078128;28;43271;-75
2022/03/28 11:10:03;;;;;;;;;;;18.60;35.40;;;;;;5080689;28;43215;-76
2022/03/28 11:12:30;;;;;;;;;;;18.70;34.80;;;;;;5085374;28;43568;-73
2022/03/28 11:14:57;;;;;;;;;;;18.60;35.00;;;;;;5082542;28;42946;-76
2022/03/28 11:17:30;;;;;;;;;;;18.60;34.70;;;;;;5077835;28;44121;-76
2022/03/28 11:20:01;;;;;;;;;;;18.70;35.00;;;;;;5069447;28;43589;-80
2022/03/28 11:22:39;;;;;;;;;;;18.70;34.90;;;;;;5072516;28;43455;-74
2022/03/28 11:25:25;;;;;;;;;;;18.70;35.40;;;;;;5083001;28;42922;-75
2022/03/28 11:27:50;;;;;;;;;;;18.70;35.00;;;;;;5070456;28;44919;-74
2022/03/28 11:30:16;;;;;;;;;;;18.70;34.80;;;;;;5059666;28;43043;-74
2022/03/28 11:32:42;;;;;;;;;;;18.80;35.00;;;;;;5079383;28;43370;-75
2022/03/28 11:35:13;;;;;;;;;;;18.70;35.50;;;;;;5081824;28;42831;-75
2022/03/28 11:37:39;;;;;;;;;;;18.70;35.40;;;;;;5084151;28;43909;-75
2022/03/28 11:40:07;;;;;;;;;;;20.30;35.60;;;;;;5079037;28;43116;-74
2022/03/28 11:42:34;;;;;;;;;;;18.70;35.50;;;;;;5069791;27;44389;-77
2022/03/28 11:45:04;;;;;;;;;;;18.80;34.80;;;;;;5094698;27;42992;-75
2022/03/28 11:47:29;;;;;;;;;;;18.70;35.10;;;;;;5092913;27;44194;-75
2022/03/28 11:49:59;;;;;;;;;;;18.70;35.50;;;;;;5091134;27;43005;-75
2022/03/28 11:52:26;;;;;;;;;;;18.80;34.80;;;;;;5093788;27;43288;-75
2022/03/28 11:54:52;;;;;;;;;;;18.70;35.60;;;;;;5095225;27;42933;-76
2022/03/28 12:00:25;;;;;;;;;;;18.70;34.70;;;;;;5073759;27;43176;-78
2022/03/28 12:02:51;;;;;;;;;;;18.80;34.80;;;;;;5082615;27;43079;-75
2022/03/28 12:05:34;;;;;;;;;;;18.80;34.70;;;;;;5083532;27;43024;-75
2022/03/28 12:08:08;;;;;;;;;;;18.80;34.80;;;;;;5080303;27;43029;-77
2022/03/28 12:10:35;;;;;;;;;;;18.80;34.80;;;;;;5079503;27;42951;-74
2022/03/28 12:13:05;;;;;;;;;;;18.80;34.70;;;;;;5080155;28;43483;-75
2022/03/28 12:15:46;;;;;;;;;;;18.80;34.70;;;;;;5065835;28;43016;-76
2022/03/28 12:18:12;;;;;;;;;;;18.80;35.00;;;;;;5079213;27;43757;-79
2022/03/28 12:20:40;;;;;;;;;;;18.80;34.70;;;;;;5079845;27;43009;-77
2022/03/28 12:23:06;;;;;;;;;;;18.80;34.80;;;;;;5083062;27;43373;-78
2022/03/28 12:25:35;;;;;;;;;;;18.80;34.70;;;;;;5078612;27;43880;-77
2022/03/28 12:28:02;;;;;;;;;;;18.80;34.60;;;;;;5078807;28;43784;-82
2022/03/28 12:30:29;;;;;;;;;;;18.80;34.50;;;;;;5079592;27;44019;-80
2022/03/28 12:32:56;;;;;;;;;;;18.80;35.00;;;;;;5082118;27;43303;-75
2022/03/28 12:35:23;;;;;;;;;;;18.80;34.20;;;;;;5080082;27;43081;-79
2022/03/28 12:43:27;;;;;;;;;;;18.90;33.70;;;;;;5078797;28;42962;-85
2022/03/28 12:45:54;;;;;;;;;;;19.00;33.60;;;;;;5085662;28;43105;-78
2022/03/28 12:48:20;;;;;;;;;;;18.90;33.50;;;;;;5081166;27;43236;-82
2022/03/28 12:50:53;;;;;;;;;;;18.80;33.50;;;;;;5082656;27;43233;-76
2022/03/28 12:53:22;;;;;;;;;;;18.80;33.40;;;;;;5085176;27;43285;-83
2022/03/28 12:55:47;;;;;;;;;;;18.70;33.10;;;;;;5085503;28;43087;-87
2022/03/28 12:58:13;;;;;;;;;;;18.90;34.00;;;;;;5084784;28;43710;-84
2022/03/28 13:00:40;;;;;;;;;;;18.80;33.70;;;;;;5086349;27;43002;-78
2022/03/28 13:03:05;;;;;;;;;;;18.80;33.00;;;;;;5086372;28;43969;-89
2022/03/28 13:05:31;;;;;;;;;;;18.70;32.60;;;;;;5084188;27;43040;-76
2022/03/28 13:08:07;;;;;;;;;;;18.90;32.70;;;;;;5085395;27;42992;-74
2022/03/28 13:10:34;;;;;;;;;;;18.80;32.80;;;;;;5072854;28;42997;-74
2022/03/28 13:13:01;;;;;;;;;;;18.80;32.30;;;;;;5083327;28;43720;-74
2022/03/28 13:15:30;;;;;;;;;;;18.80;32.80;;;;;;5085333;28;43049;-75
2022/03/28 13:18:04;;;;;;;;;;;18.80;32.00;;;;;;5086017;28;43038;-79
2022/03/28 13:20:29;;;;;;;;;;;18.70;31.80;;;;;;5090467;28;42933;-80
2022/03/28 13:22:57;;;;;;;;;;;18.90;31.50;;;;;;5095181;28;42937;-79
2022/03/28 13:25:22;;;;;;;;;;;18.80;31.30;;;;;;5083530;27;42845;-75
2022/03/28 13:28:01;;;;;;;;;;;18.80;30.90;;;;;;5068057;28;43634;-83
2022/03/28 13:30:28;;;;;;;;;;;18.90;30.80;;;;;;5072224;28;42968;-82
2022/03/28 13:32:56;;;;;;;;;;;18.60;31.40;;;;;;5077132;27;42966;-80
2022/03/28 13:35:25;;;;;;;;;;;18.90;31.00;;;;;;5085252;28;43073;-78
2022/03/28 13:37:58;;;;;;;;;;;18.90;30.80;;;;;;5081662;28;43665;-78
2022/03/28 13:40:24;;;;;;;;;;;18.90;31.20;;;;;;5083098;27;42910;-83
2022/03/28 13:42:50;;;;;;;;;;;18.90;30.40;;;;;;5082937;28;43460;-80
2022/03/28 13:45:16;;;;;;;;;;;18.90;31.20;;;;;;5078610;27;42992;-77
2022/03/28 13:47:41;;;;;;;;;;;18.90;30.90;;;;;;5076854;27;43608;-83
2022/03/28 13:50:07;;;;;;;;;;;18.90;30.30;;;;;;5080216;28;42929;-76
2022/03/28 13:52:32;;;;;;;;;;;18.90;30.40;;;;;;5082515;28;43460;-77
2022/03/28 13:54:59;;;;;;;;;;;18.90;30.60;;;;;;5083198;27;42969;-80
2022/03/28 13:57:26;;;;;;;;;;;18.90;31.00;;;;;;5085863;28;43308;-75
2022/03/28 13:59:58;;;;;;;;;;;18.90;31.10;;;;;;5088050;28;44203;-75
2022/03/28 14:02:23;;;;;;;;;;;19.00;31.10;;;;;;5085812;28;44105;-78
2022/03/28 14:04:49;;;;;;;;;;;19.00;30.90;;;;;;5087349;28;42909;-74
2022/03/28 14:07:14;;;;;;;;;;;19.00;30.80;;;;;;5086609;28;43009;-74
2022/03/28 14:09:40;;;;;;;;;;;18.90;30.30;;;;;;5086260;28;42925;-75
2022/03/28 14:12:06;;;;;;;;;;;18.90;30.10;;;;;;5085331;27;44090;-76
2022/03/28 14:14:32;;;;;;;;;;;18.90;29.90;;;;;;5086736;27;43000;-77
2022/03/28 14:16:57;;;;;;;;;;;18.90;29.60;;;;;;5086739;27;42932;-76
2022/03/28 14:19:23;;;;;;;;;;;18.90;29.50;;;;;;5086386;28;42858;-78
2022/03/28 14:21:52;;;;;;;;;;;18.90;29.60;;;;;;5086275;27;44273;-75
2022/03/28 14:24:18;;;;;;;;;;;19.00;29.70;;;;;;5085809;27;43031;-76
2022/03/28 14:26:43;;;;;;;;;;;18.90;29.60;;;;;;5085952;27;43595;-78
2022/03/28 14:29:09;;;;;;;;;;;18.90;29.50;;;;;;5084103;28;43899;-79